sensor_id;sensor_type;location;lat;lon;timestamp;pressure;altitude;pressure_sealevel;temperature;humidity
73651;BME280;61944;52.538;6.108;2023-04-01T00:00:03;98969.91;;;9.60;100.00
73651;BME280;61944;52.538;6.108;2023-04-01T00:02:29;98974.63;;;9.66;100.00
73651;BME280;61944;52.538;6.108;2023-04-01T00:04:55;98970.56;;;9.71;100.00
73651;BME280;61944;52.538;6.108;2023-04-01T00:07:20;98967.00;;;9.70;100.00
73651;BME280;61944;52.538;6.108;2023-04-01T00:09:46;98981.63;;;9.78;100.00
73651;BME280;61944;52.538;6.108;2023-04-01T00:12:11;98977.31;;;9.73;100.00
73651;BME280;61944;52.538;6.108;2023-04-01T00:14:36;98982.88;;;9.77;100.00
73651;BME280;61944;52.538;6.108;2023-04-01T00:17:02;98976.56;;;9.69;100.00
73651;BME280;61944;52.538;6.108;2023-04-01T00:19:28;98980.53;;;9.72;100.00
73651;BME280;61944;52.538;6.108;2023-04-01T00:21:53;98982.63;;;9.64;100.00
73651;BME280;61944;52.538;6.108;2023-04-01T00:24:19;98978.81;;;9.82;100.00
73651;BME280;61944;52.538;6.108;2023-04-01T00:26:44;98982.38;;;9.82;100.00
73651;BME280;61944;52.538;6.108;2023-04-01T00:29:10;98982.81;;;9.81;100.00
73651;BME280;61944;52.538;6.108;2023-04-01T00:31:35;98982.38;;;9.82;100.00
73651;BME280;61944;52.538;6.108;2023-04-01T00:34:00;98980.72;;;9.88;100.00
73651;BME280;61944;52.538;6.108;2023-04-01T00:36:26;98982.50;;;9.75;100.00
73651;BME280;61944;52.538;6.108;2023-04-01T00:38:51;98974.59;;;9.70;100.00
73651;BME280;61944;52.538;6.108;2023-04-01T00:41:20;98986.84;;;9.76;100.00
73651;BME280;61944;52.538;6.108;2023-04-01T00:43:49;98984.91;;;9.73;100.00
73651;BME280;61944;52.538;6.108;2023-04-01T00:46:15;98981.75;;;9.71;100.00
73651;BME280;61944;52.538;6.108;2023-04-01T00:48:48;98979.72;;;9.71;100.00
73651;BME280;61944;52.538;6.108;2023-04-01T00:51:27;98987.88;;;9.93;100.00
73651;BME280;61944;52.538;6.108;2023-04-01T00:53:56;98985.38;;;9.98;100.00
73651;BME280;61944;52.538;6.108;2023-04-01T00:56:30;98987.78;;;9.96;100.00
73651;BME280;61944;52.538;6.108;2023-04-01T00:59:00;98993.13;;;9.87;100.00
73651;BME280;61944;52.538;6.108;2023-04-01T01:01:28;98991.81;;;9.95;100.00
73651;BME280;61944;52.538;6.108;2023-04-01T01:03:54;98984.03;;;9.80;100.00
73651;BME280;61944;52.538;6.108;2023-04-01T01:06:30;98989.56;;;9.83;100.00
73651;BME280;61944;52.538;6.108;2023-04-01T01:12:11;98986.41;;;9.81;100.00
73651;BME280;61944;52.538;6.108;2023-04-01T01:17:38;98991.69;;;10.03;100.00
73651;BME280;61944;52.538;6.108;2023-04-01T01:25:40;99001.25;;;10.05;100.00
73651;BME280;61944;52.538;6.108;2023-04-01T01:28:38;99005.69;;;10.03;100.00
73651;BME280;61944;52.538;6.108;2023-04-01T01:37:10;98999.69;;;10.04;100.00
73651;BME280;61944;52.538;6.108;2023-04-01T01:39:39;98987.72;;;10.04;100.00
73651;BME280;61944;52.538;6.108;2023-04-01T01:42:09;99009.06;;;10.17;100.00
73651;BME280;61944;52.538;6.108;2023-04-01T01:44:37;99005.59;;;10.10;100.00
73651;BME280;61944;52.538;6.108;2023-04-01T01:47:03;99004.03;;;10.05;100.00
73651;BME280;61944;52.538;6.108;2023-04-01T01:49:32;98999.03;;;10.20;100.00
73651;BME280;61944;52.538;6.108;2023-04-01T01:51:58;99005.91;;;10.15;100.00
73651;BME280;61944;52.538;6.108;2023-04-01T01:54:25;99008.97;;;9.97;100.00
73651;BME280;61944;52.538;6.108;2023-04-01T01:57:02;99002.88;;;10.03;100.00
73651;BME280;61944;52.538;6.108;2023-04-01T01:59:30;99012.38;;;10.09;100.00
73651;BME280;61944;52.538;6.108;2023-04-01T02:01:58;99020.13;;;9.97;100.00
73651;BME280;61944;52.538;6.108;2023-04-01T02:04:25;99017.28;;;10.01;100.00
73651;BME280;61944;52.538;6.108;2023-04-01T02:07:00;99017.56;;;10.10;100.00
73651;BME280;61944;52.538;6.108;2023-04-01T02:09:27;99022.81;;;10.05;100.00
73651;BME280;61944;52.538;6.108;2023-04-01T02:12:02;99023.69;;;10.02;100.00
73651;BME280;61944;52.538;6.108;2023-04-01T02:17:09;99029.06;;;10.16;100.00
73651;BME280;61944;52.538;6.108;2023-04-01T02:19:43;99028.59;;;10.21;100.00
73651;BME280;61944;52.538;6.108;2023-04-01T02:22:14;99016.66;;;10.17;100.00
73651;BME280;61944;52.538;6.108;2023-04-01T02:24:42;99028.84;;;10.34;100.00
73651;BME280;61944;52.538;6.108;2023-04-01T02:27:12;99033.28;;;10.31;100.00
73651;BME280;61944;52.538;6.108;2023-04-01T02:29:38;99028.88;;;10.30;100.00
73651;BME280;61944;52.538;6.108;2023-04-01T02:32:05;99028.09;;;10.30;100.00
73651;BME280;61944;52.538;6.108;2023-04-01T02:34:31;99040.06;;;10.30;100.00
73651;BME280;61944;52.538;6.108;2023-04-01T02:36:57;99031.41;;;10.21;100.00
73651;BME280;61944;52.538;6.108;2023-04-01T02:39:23;99046.13;;;10.25;100.00
73651;BME280;61944;52.538;6.108;2023-04-01T02:41:50;99046.94;;;10.22;100.00
73651;BME280;61944;52.538;6.108;2023-04-01T02:44:16;99039.31;;;10.26;100.00
73651;BME280;61944;52.538;6.108;2023-04-01T02:46:41;99032.97;;;10.22;100.00
73651;BME280;61944;52.538;6.108;2023-04-01T02:49:06;99047.25;;;10.31;100.00
73651;BME280;61944;52.538;6.108;2023-04-01T02:51:32;99038.41;;;10.36;100.00
73651;BME280;61944;52.538;6.108;2023-04-01T02:53:58;99045.22;;;10.35;100.00
73651;BME280;61944;52.538;6.108;2023-04-01T02:56:24;99047.25;;;10.31;100.00
73651;BME280;61944;52.538;6.108;2023-04-01T02:58:50;99054.81;;;10.34;100.00
73651;BME280;61944;52.538;6.108;2023-04-01T03:01:15;99049.69;;;10.29;100.00
73651;BME280;61944;52.538;6.108;2023-04-01T03:03:41;99058.13;;;10.22;100.00
73651;BME280;61944;52.538;6.108;2023-04-01T03:06:08;99054.59;;;10.18;100.00
73651;BME280;61944;52.538;6.108;2023-04-01T03:08:34;99048.91;;;10.25;100.00
73651;BME280;61944;52.538;6.108;2023-04-01T03:10:59;99060.19;;;10.18;100.00
73651;BME280;61944;52.538;6.108;2023-04-01T03:13:25;99066.47;;;10.29;100.00
73651;BME280;61944;52.538;6.108;2023-04-01T03:15:51;99062.44;;;10.30;100.00
73651;BME280;61944;52.538;6.108;2023-04-01T03:18:17;99064.19;;;10.17;100.00
73651;BME280;61944;52.538;6.108;2023-04-01T03:20:42;99074.09;;;10.25;100.00
73651;BME280;61944;52.538;6.108;2023-04-01T03:23:08;99070.13;;;10.23;100.00
73651;BME280;61944;52.538;6.108;2023-04-01T03:25:33;99055.16;;;10.06;100.00
73651;BME280;61944;52.538;6.108;2023-04-01T03:27:59;99064.75;;;10.05;100.00
73651;BME280;61944;52.538;6.108;2023-04-01T03:30:25;99079.63;;;10.29;100.00
73651;BME280;61944;52.538;6.108;2023-04-01T03:32:52;99081.94;;;10.37;100.00
73651;BME280;61944;52.538;6.108;2023-04-01T03:35:18;99084.75;;;10.37;100.00
73651;BME280;61944;52.538;6.108;2023-04-01T03:37:43;99088.34;;;10.34;100.00
73651;BME280;61944;52.538;6.108;2023-04-01T03:40:09;99080.47;;;10.26;100.00
73651;BME280;61944;52.538;6.108;2023-04-01T03:42:35;99101.59;;;10.30;100.00
73651;BME280;61944;52.538;6.108;2023-04-01T03:45:00;99087.75;;;10.16;100.00
73651;BME280;61944;52.538;6.108;2023-04-01T03:47:26;99094.25;;;10.09;100.00
73651;BME280;61944;52.538;6.108;2023-04-01T03:49:51;99097.09;;;10.06;100.00
73651;BME280;61944;52.538;6.108;2023-04-01T03:52:17;99097.88;;;10.06;100.00
73651;BME280;61944;52.538;6.108;2023-04-01T03:54:42;99091.63;;;9.95;100.00
73651;BME280;61944;52.538;6.108;2023-04-01T03:57:07;99097.16;;;9.98;100.00
73651;BME280;61944;52.538;6.108;2023-04-01T03:59:33;99092.47;;;9.92;100.00
73651;BME280;61944;52.538;6.108;2023-04-01T04:01:59;99102.91;;;9.84;100.00
73651;BME280;61944;52.538;6.108;2023-04-01T04:04:25;99095.81;;;9.76;100.00
73651;BME280;61944;52.538;6.108;2023-04-01T04:06:51;99105.28;;;9.89;100.00
73651;BME280;61944;52.538;6.108;2023-04-01T04:09:16;99107.59;;;9.94;100.00
73651;BME280;61944;52.538;6.108;2023-04-01T04:11:41;99107.53;;;10.02;100.00
73651;BME280;61944;52.538;6.108;2023-04-01T04:14:07;99117.72;;;10.15;100.00
73651;BME280;61944;52.538;6.108;2023-04-01T04:16:35;99116.16;;;10.14;100.00
73651;BME280;61944;52.538;6.108;2023-04-01T04:19:02;99114.53;;;10.17;100.00
73651;BME280;61944;52.538;6.108;2023-04-01T04:21:27;99122.44;;;10.22;100.00
73651;BME280;61944;52.538;6.108;2023-04-01T04:23:53;99124.78;;;10.27;100.00
73651;BME280;61944;52.538;6.108;2023-04-01T04:26:18;99118.81;;;10.25;100.00
73651;BME280;61944;52.538;6.108;2023-04-01T04:28:43;99113.69;;;10.20;100.00
73651;BME280;61944;52.538;6.108;2023-04-01T04:31:09;99130.00;;;10.25;100.00
73651;BME280;61944;52.538;6.108;2023-04-01T04:33:35;99132.41;;;10.27;100.00
73651;BME280;61944;52.538;6.108;2023-04-01T04:36:00;99141.13;;;10.32;100.00
73651;BME280;61944;52.538;6.108;2023-04-01T04:38:27;99135.97;;;10.27;100.00
73651;BME280;61944;52.538;6.108;2023-04-01T04:40:53;99135.59;;;10.25;100.00
73651;BME280;61944;52.538;6.108;2023-04-01T04:43:18;99143.59;;;10.27;100.00
73651;BME280;61944;52.538;6.108;2023-04-01T04:45:44;99146.81;;;10.22;100.00
73651;BME280;61944;52.538;6.108;2023-04-01T04:48:12;99149.16;;;10.27;100.00
73651;BME280;61944;52.538;6.108;2023-04-01T04:50:41;99156.34;;;10.31;100.00
73651;BME280;61944;52.538;6.108;2023-04-01T04:53:08;99157.53;;;10.30;100.00
73651;BME280;61944;52.538;6.108;2023-04-01T04:55:34;99158.69;;;10.33;100.00
73651;BME280;61944;52.538;6.108;2023-04-01T04:57:59;99161.47;;;10.33;100.00
73651;BME280;61944;52.538;6.108;2023-04-01T05:00:25;99165.94;;;10.27;100.00
73651;BME280;61944;52.538;6.108;2023-04-01T05:02:53;99169.53;;;10.27;100.00
73651;BME280;61944;52.538;6.108;2023-04-01T05:05:19;99166.34;;;10.25;100.00
73651;BME280;61944;52.538;6.108;2023-04-01T05:07:44;99168.41;;;10.21;100.00
73651;BME280;61944;52.538;6.108;2023-04-01T05:10:09;99169.19;;;10.22;100.00
73651;BME280;61944;52.538;6.108;2023-04-01T05:12:35;99166.50;;;10.14;100.00
73651;BME280;61944;52.538;6.108;2023-04-01T05:15:05;99181.53;;;10.24;100.00
73651;BME280;61944;52.538;6.108;2023-04-01T05:17:30;99173.66;;;10.15;100.00
73651;BME280;61944;52.538;6.108;2023-04-01T05:19:56;99177.72;;;10.07;100.00
73651;BME280;61944;52.538;6.108;2023-04-01T05:22:21;99183.94;;;10.22;100.00
73651;BME280;61944;52.538;6.108;2023-04-01T05:24:47;99180.00;;;10.20;100.00
73651;BME280;61944;52.538;6.108;2023-04-01T05:27:12;99193.94;;;10.23;100.00
73651;BME280;61944;52.538;6.108;2023-04-01T05:29:38;99195.91;;;10.26;100.00
73651;BME280;61944;52.538;6.108;2023-04-01T05:32:03;99200.69;;;10.29;100.00
73651;BME280;61944;52.538;6.108;2023-04-01T05:34:28;99205.44;;;10.32;100.00
73651;BME280;61944;52.538;6.108;2023-04-01T05:36:54;99199.47;;;10.30;100.00
73651;BME280;61944;52.538;6.108;2023-04-01T05:39:19;99208.69;;;10.27;100.00
73651;BME280;61944;52.538;6.108;2023-04-01T05:41:45;99197.56;;;10.20;100.00
73651;BME280;61944;52.538;6.108;2023-04-01T05:44:11;99216.69;;;10.25;100.00
73651;BME280;61944;52.538;6.108;2023-04-01T05:46:37;99205.91;;;10.24;100.00
73651;BME280;61944;52.538;6.108;2023-04-01T05:49:02;99214.28;;;10.27;100.00
73651;BME280;61944;52.538;6.108;2023-04-01T05:51:28;99212.28;;;10.24;100.00
73651;BME280;61944;52.538;6.108;2023-04-01T05:53:53;99221.06;;;10.26;100.00
73651;BME280;61944;52.538;6.108;2023-04-01T05:56:19;99223.00;;;10.33;100.00
73651;BME280;61944;52.538;6.108;2023-04-01T05:58:47;99228.69;;;10.22;100.00
73651;BME280;61944;52.538;6.108;2023-04-01T06:01:15;99235.03;;;10.26;100.00
73651;BME280;61944;52.538;6.108;2023-04-01T06:03:41;99244.59;;;10.32;100.00
73651;BME280;61944;52.538;6.108;2023-04-01T06:06:13;99231.84;;;10.31;100.00
73651;BME280;61944;52.538;6.108;2023-04-01T06:08:40;99228.66;;;10.29;100.00
73651;BME280;61944;52.538;6.108;2023-04-01T06:11:17;99247.50;;;10.18;100.00
73651;BME280;61944;52.538;6.108;2023-04-01T06:25:33;99268.72;;;10.15;100.00
73651;BME280;61944;52.538;6.108;2023-04-01T06:28:26;99274.28;;;10.19;100.00
73651;BME280;61944;52.538;6.108;2023-04-01T06:42:05;99284.50;;;10.36;100.00
73651;BME280;61944;52.538;6.108;2023-04-01T06:51:06;99299.78;;;10.25;100.00
73651;BME280;61944;52.538;6.108;2023-04-01T06:53:58;99295.00;;;10.25;100.00
73651;BME280;61944;52.538;6.108;2023-04-01T06:56:29;99297.38;;;10.27;100.00
73651;BME280;61944;52.538;6.108;2023-04-01T06:59:19;99302.13;;;10.33;100.00
73651;BME280;61944;52.538;6.108;2023-04-01T07:01:50;99305.69;;;10.37;100.00
73651;BME280;61944;52.538;6.108;2023-04-01T07:06:58;99295.13;;;10.11;100.00
73651;BME280;61944;52.538;6.108;2023-04-01T07:09:32;99315.34;;;10.29;100.00
73651;BME280;61944;52.538;6.108;2023-04-01T07:12:04;99319.69;;;10.34;100.00
73651;BME280;61944;52.538;6.108;2023-04-01T07:14:39;99322.41;;;10.41;100.00
73651;BME280;61944;52.538;6.108;2023-04-01T07:17:16;99318.91;;;11.06;100.00
73651;BME280;61944;52.538;6.108;2023-04-01T07:19:54;99336.50;;;11.06;100.00
73651;BME280;61944;52.538;6.108;2023-04-01T07:22:43;99330.41;;;10.81;100.00
73651;BME280;61944;52.538;6.108;2023-04-01T07:25:18;99343.97;;;10.86;100.00
73651;BME280;61944;52.538;6.108;2023-04-01T07:27:48;99351.88;;;10.91;100.00
73651;BME280;61944;52.538;6.108;2023-04-01T07:30:18;99349.22;;;11.11;100.00
73651;BME280;61944;52.538;6.108;2023-04-01T07:33:18;99360.44;;;11.11;100.00
73651;BME280;61944;52.538;6.108;2023-04-01T07:46:59;99385.16;;;11.19;100.00
73651;BME280;61944;52.538;6.108;2023-04-01T08:00:41;99395.25;;;10.75;100.00
73651;BME280;61944;52.538;6.108;2023-04-01T08:03:35;99400.91;;;10.68;100.00
73651;BME280;61944;52.538;6.108;2023-04-01T08:09:06;99408.78;;;10.81;100.00
73651;BME280;61944;52.538;6.108;2023-04-01T08:12:13;99418.78;;;10.78;100.00
73651;BME280;61944;52.538;6.108;2023-04-01T08:20:10;99424.94;;;10.62;100.00
73651;BME280;61944;52.538;6.108;2023-04-01T08:23:33;99418.16;;;10.63;100.00
73651;BME280;61944;52.538;6.108;2023-04-01T08:25:33;99432.13;;;10.63;100.00
73651;BME280;61944;52.538;6.108;2023-04-01T08:28:15;99435.31;;;10.65;100.00
73651;BME280;61944;52.538;6.108;2023-04-01T08:33:33;99442.88;;;10.68;100.00
73651;BME280;61944;52.538;6.108;2023-04-01T08:36:12;99452.75;;;10.84;100.00
73651;BME280;61944;52.538;6.108;2023-04-01T08:38:51;99452.97;;;11.00;100.00
73651;BME280;61944;52.538;6.108;2023-04-01T08:52:42;99457.41;;;10.94;100.00
73651;BME280;61944;52.538;6.108;2023-04-01T08:55:27;99468.97;;;10.99;100.00
73651;BME280;61944;52.538;6.108;2023-04-01T08:59:07;99476.63;;;10.92;100.00
73651;BME280;61944;52.538;6.108;2023-04-01T09:04:20;99485.38;;;10.97;100.00
73651;BME280;61944;52.538;6.108;2023-04-01T09:12:42;99493.59;;;10.74;100.00
73651;BME280;61944;52.538;6.108;2023-04-01T09:15:31;99496.78;;;10.76;100.00
73651;BME280;61944;52.538;6.108;2023-04-01T09:18:06;99505.50;;;10.85;100.00
73651;BME280;61944;52.538;6.108;2023-04-01T09:34:25;99519.34;;;11.03;100.00
73651;BME280;61944;52.538;6.108;2023-04-01T09:42:42;99544.16;;;11.01;100.00
73651;BME280;61944;52.538;6.108;2023-04-01T09:45:22;99550.13;;;11.03;100.00
73651;BME280;61944;52.538;6.108;2023-04-01T09:48:34;99556.53;;;11.04;100.00
73651;BME280;61944;52.538;6.108;2023-04-01T09:57:17;99561.22;;;11.17;100.00
73651;BME280;61944;52.538;6.108;2023-04-01T10:00:19;99568.69;;;11.28;100.00
73651;BME280;61944;52.538;6.108;2023-04-01T10:08:41;99576.28;;;11.31;100.00
73651;BME280;61944;52.538;6.108;2023-04-01T10:17:51;99595.00;;;11.41;100.00
73651;BME280;61944;52.538;6.108;2023-04-01T10:36:58;99612.25;;;11.36;100.00
73651;BME280;61944;52.538;6.108;2023-04-01T10:39:33;99622.13;;;11.51;100.00
73651;BME280;61944;52.538;6.108;2023-04-01T10:42:25;99624.47;;;11.56;100.00
73651;BME280;61944;52.538;6.108;2023-04-01T10:45:24;99618.09;;;11.52;100.00
73651;BME280;61944;52.538;6.108;2023-04-01T10:48:21;99626.41;;;11.63;100.00
73651;BME280;61944;52.538;6.108;2023-04-01T10:51:13;99622.41;;;11.64;100.00
73651;BME280;61944;52.538;6.108;2023-04-01T11:16:09;99652.16;;;11.92;100.00
73651;BME280;61944;52.538;6.108;2023-04-01T11:41:24;99689.13;;;12.22;100.00
73651;BME280;61944;52.538;6.108;2023-04-01T11:44:03;99692.31;;;12.20;100.00
73651;BME280;61944;52.538;6.108;2023-04-01T11:47:27;99697.66;;;12.45;100.00
73651;BME280;61944;52.538;6.108;2023-04-01T11:53:01;99715.28;;;12.46;100.00
73651;BME280;61944;52.538;6.108;2023-04-01T11:58:46;99723.53;;;12.26;100.00
73651;BME280;61944;52.538;6.108;2023-04-01T12:01:47;99718.91;;;12.08;100.00
73651;BME280;61944;52.538;6.108;2023-04-01T12:21:38;99759.09;;;11.98;100.00
73651;BME280;61944;52.538;6.108;2023-04-01T12:27:14;99772.75;;;11.92;100.00
73651;BME280;61944;52.538;6.108;2023-04-01T12:32:40;99781.72;;;11.66;100.00
73651;BME280;61944;52.538;6.108;2023-04-01T12:35:23;99792.25;;;11.51;100.00
73651;BME280;61944;52.538;6.108;2023-04-01T12:40:50;99799.56;;;11.37;100.00
73651;BME280;61944;52.538;6.108;2023-04-01T12:54:04;99832.47;;;11.19;100.00
73651;BME280;61944;52.538;6.108;2023-04-01T12:56:42;99839.28;;;11.22;100.00
73651;BME280;61944;52.538;6.108;2023-04-01T12:59:32;99836.50;;;11.14;100.00
73651;BME280;61944;52.538;6.108;2023-04-01T13:02:13;99841.28;;;11.17;100.00
73651;BME280;61944;52.538;6.108;2023-04-01T13:04:52;99851.72;;;11.13;100.00
73651;BME280;61944;52.538;6.108;2023-04-01T13:10:37;99857.72;;;11.89;100.00
73651;BME280;61944;52.538;6.108;2023-04-01T13:16:05;99865.81;;;11.69;100.00
73651;BME280;61944;52.538;6.108;2023-04-01T13:21:29;99883.00;;;10.83;100.00
73651;BME280;61944;52.538;6.108;2023-04-01T13:24:14;99879.81;;;10.88;100.00
73651;BME280;61944;52.538;6.108;2023-04-01T13:32:45;99900.59;;;10.94;100.00
73651;BME280;61944;52.538;6.108;2023-04-01T13:35:28;99911.00;;;10.83;100.00
73651;BME280;61944;52.538;6.108;2023-04-01T13:43:35;99924.56;;;10.92;100.00
73651;BME280;61944;52.538;6.108;2023-04-01T13:48:41;99933.41;;;10.76;100.00
73651;BME280;61944;52.538;6.108;2023-04-01T13:51:19;99932.63;;;10.54;100.00
73651;BME280;61944;52.538;6.108;2023-04-01T13:59:56;99935.84;;;10.67;100.00
73651;BME280;61944;52.538;6.108;2023-04-01T14:02:45;99945.44;;;10.55;100.00
73651;BME280;61944;52.538;6.108;2023-04-01T14:08:32;99959.00;;;10.64;100.00
73651;BME280;61944;52.538;6.108;2023-04-01T14:11:07;99963.03;;;10.59;100.00
73651;BME280;61944;52.538;6.108;2023-04-01T14:19:29;99977.78;;;10.45;100.00
73651;BME280;61944;52.538;6.108;2023-04-01T14:27:53;99991.00;;;10.45;100.00
73651;BME280;61944;52.538;6.108;2023-04-01T14:30:41;100002.19;;;10.37;100.00
73651;BME280;61944;52.538;6.108;2023-04-01T14:38:46;100010.56;;;10.52;100.00
73651;BME280;61944;52.538;6.108;2023-04-01T14:44:23;100025.34;;;10.34;100.00
73651;BME280;61944;52.538;6.108;2023-04-01T14:49:35;100036.47;;;10.16;100.00
73651;BME280;61944;52.538;6.108;2023-04-01T14:52:14;100038.88;;;10.14;100.00
73651;BME280;61944;52.538;6.108;2023-04-01T14:54:44;100032.47;;;10.14;100.00
73651;BME280;61944;52.538;6.108;2023-04-01T14:57:24;100054.88;;;10.28;100.00
73651;BME280;61944;52.538;6.108;2023-04-01T14:59:59;100053.72;;;10.33;100.00
73651;BME280;61944;52.538;6.108;2023-04-01T15:02:54;100051.72;;;10.37;100.00
73651;BME280;61944;52.538;6.108;2023-04-01T15:08:26;100068.84;;;10.21;100.00
73651;BME280;61944;52.538;6.108;2023-04-01T15:11:23;100066.06;;;10.28;100.00
73651;BME280;61944;52.538;6.108;2023-04-01T15:14:12;100087.63;;;10.17;100.00
73651;BME280;61944;52.538;6.108;2023-04-01T15:20:10;100098.38;;;10.08;100.00
73651;BME280;61944;52.538;6.108;2023-04-01T15:28:37;100108.81;;;10.22;100.00
73651;BME280;61944;52.538;6.108;2023-04-01T15:36:22;100129.13;;;10.08;100.00
73651;BME280;61944;52.538;6.108;2023-04-01T15:38:57;100131.88;;;10.01;100.00
73651;BME280;61944;52.538;6.108;2023-04-01T15:44:48;100155.38;;;9.85;100.00
73651;BME280;61944;52.538;6.108;2023-04-01T15:50:21;100167.50;;;10.18;100.00
73651;BME280;61944;52.538;6.108;2023-04-01T15:56:44;100186.00;;;10.37;100.00
73651;BME280;61944;52.538;6.108;2023-04-01T15:58:48;100185.19;;;10.29;100.00
73651;BME280;61944;52.538;6.108;2023-04-01T16:15:08;100214.28;;;9.59;100.00
73651;BME280;61944;52.538;6.108;2023-04-01T16:17:50;100228.66;;;9.61;100.00
73651;BME280;61944;52.538;6.108;2023-04-01T16:20:21;100230.28;;;9.62;100.00
73651;BME280;61944;52.538;6.108;2023-04-01T16:23:00;100243.09;;;9.66;100.00
73651;BME280;61944;52.538;6.108;2023-04-01T16:25:39;100246.78;;;9.33;100.00
73651;BME280;61944;52.538;6.108;2023-04-01T16:28:32;100256.75;;;9.82;100.00
73651;BME280;61944;52.538;6.108;2023-04-01T16:34:16;100267.28;;;10.00;100.00
73651;BME280;61944;52.538;6.108;2023-04-01T16:39:37;100264.84;;;9.94;100.00
73651;BME280;61944;52.538;6.108;2023-04-01T16:45:22;100285.91;;;9.81;100.00
73651;BME280;61944;52.538;6.108;2023-04-01T16:47:54;100292.72;;;9.84;100.00
73651;BME280;61944;52.538;6.108;2023-04-01T16:50:23;100292.69;;;9.80;100.00
73651;BME280;61944;52.538;6.108;2023-04-01T16:53:08;100295.56;;;9.87;100.00
73651;BME280;61944;52.538;6.108;2023-04-01T16:55:50;100313.44;;;9.79;100.00
73651;BME280;61944;52.538;6.108;2023-04-01T16:59:40;100322.50;;;9.65;100.00
73651;BME280;61944;52.538;6.108;2023-04-01T17:01:52;100332.34;;;9.96;100.00
73651;BME280;61944;52.538;6.108;2023-04-01T17:04:25;100338.38;;;9.98;100.00
73651;BME280;61944;52.538;6.108;2023-04-01T17:17:51;100356.13;;;9.72;100.00
73651;BME280;61944;52.538;6.108;2023-04-01T17:23:37;100375.69;;;9.72;100.00
73651;BME280;61944;52.538;6.108;2023-04-01T17:26:20;100381.13;;;9.58;100.00
73651;BME280;61944;52.538;6.108;2023-04-01T17:34:42;100409.66;;;9.74;100.00
73651;BME280;61944;52.538;6.108;2023-04-01T17:39:49;100423.72;;;9.85;100.00
73651;BME280;61944;52.538;6.108;2023-04-01T17:42:40;100430.94;;;9.52;100.00
73651;BME280;61944;52.538;6.108;2023-04-01T17:45:21;100438.66;;;9.63;100.00
73651;BME280;61944;52.538;6.108;2023-04-01T17:53:31;100455.16;;;9.41;100.00
73651;BME280;61944;52.538;6.108;2023-04-01T18:06:19;100476.59;;;9.30;100.00
73651;BME280;61944;52.538;6.108;2023-04-01T18:09:01;100495.72;;;9.28;100.00
73651;BME280;61944;52.538;6.108;2023-04-01T18:17:21;100516.44;;;9.27;100.00
73651;BME280;61944;52.538;6.108;2023-04-01T18:22:48;100525.75;;;9.38;100.00
73651;BME280;61944;52.538;6.108;2023-04-01T18:25:38;100533.47;;;9.48;100.00
73651;BME280;61944;52.538;6.108;2023-04-01T18:30:32;100552.44;;;9.32;100.00
73651;BME280;61944;52.538;6.108;2023-04-01T18:33:04;100550.16;;;8.88;100.00
73651;BME280;61944;52.538;6.108;2023-04-01T18:38:13;100564.59;;;8.93;100.00
73651;BME280;61944;52.538;6.108;2023-04-01T18:40:53;100576.38;;;8.83;100.00
73651;BME280;61944;52.538;6.108;2023-04-01T18:43:54;100574.88;;;8.89;100.00
73651;BME280;61944;52.538;6.108;2023-04-01T18:54:24;100605.44;;;9.28;100.00
73651;BME280;61944;52.538;6.108;2023-04-01T18:57:01;100611.22;;;9.16;100.00
73651;BME280;61944;52.538;6.108;2023-04-01T18:59:43;100617.16;;;9.14;100.00
73651;BME280;61944;52.538;6.108;2023-04-01T19:02:34;100631.03;;;9.07;100.00
73651;BME280;61944;52.538;6.108;2023-04-01T19:05:09;100636.47;;;9.23;100.00
73651;BME280;61944;52.538;6.108;2023-04-01T19:10:21;100649.63;;;9.00;100.00
73651;BME280;61944;52.538;6.108;2023-04-01T19:15:31;100658.69;;;8.93;100.00
73651;BME280;61944;52.538;6.108;2023-04-01T19:20:57;100680.47;;;8.84;100.00
73651;BME280;61944;52.538;6.108;2023-04-01T19:26:04;100686.06;;;9.07;100.00
73651;BME280;61944;52.538;6.108;2023-04-01T19:28:39;100697.06;;;8.96;100.00
73651;BME280;61944;52.538;6.108;2023-04-01T19:34:13;100706.63;;;8.75;100.00
73651;BME280;61944;52.538;6.108;2023-04-01T19:36:59;100713.53;;;8.82;100.00
73651;BME280;61944;52.538;6.108;2023-04-01T19:42:14;100717.16;;;8.63;100.00
73651;BME280;61944;52.538;6.108;2023-04-01T19:47:38;100727.94;;;8.64;100.00
73651;BME280;61944;52.538;6.108;2023-04-01T19:52:55;100732.22;;;8.58;100.00
73651;BME280;61944;52.538;6.108;2023-04-01T19:55:43;100747.16;;;8.89;100.00
73651;BME280;61944;52.538;6.108;2023-04-01T19:58:39;100752.59;;;8.82;100.00
73651;BME280;61944;52.538;6.108;2023-04-01T20:01:13;100757.16;;;8.90;100.00
73651;BME280;61944;52.538;6.108;2023-04-01T20:03:58;100779.34;;;8.63;100.00
73651;BME280;61944;52.538;6.108;2023-04-01T20:06:33;100769.72;;;8.80;100.00
73651;BME280;61944;52.538;6.108;2023-04-01T20:12:53;100794.31;;;8.74;100.00
73651;BME280;61944;52.538;6.108;2023-04-01T20:15:39;100804.59;;;8.70;100.00
73651;BME280;61944;52.538;6.108;2023-04-01T20:18:14;100805.03;;;8.53;100.00
73651;BME280;61944;52.538;6.108;2023-04-01T20:21:51;100817.34;;;8.17;100.00
73651;BME280;61944;52.538;6.108;2023-04-01T20:23:59;100815.31;;;8.49;100.00
73651;BME280;61944;52.538;6.108;2023-04-01T20:26:30;100820.88;;;8.49;100.00
73651;BME280;61944;52.538;6.108;2023-04-01T20:29:22;100837.91;;;8.44;100.00
73651;BME280;61944;52.538;6.108;2023-04-01T20:34:58;100849.06;;;8.44;100.00
73651;BME280;61944;52.538;6.108;2023-04-01T20:37:51;100856.19;;;8.25;100.00
73651;BME280;61944;52.538;6.108;2023-04-01T20:48:30;100877.78;;;8.44;100.00
73651;BME280;61944;52.538;6.108;2023-04-01T20:51:05;100875.97;;;8.52;100.00
73651;BME280;61944;52.538;6.108;2023-04-01T20:53:43;100890.47;;;8.42;100.00